Skip Navigation Links Skip Navigation Links

Current Weather

Single Point, Y.T.

For information only: do not use for flight planning or navigation.
Latest weather
Observation time Tuesday, October 26, 2021 10:00 PM PDT
Local time Tuesday, October 26, 2021 11:02 PM PDT
Flight conditions Low Instrument Meteorological Conditions
Winds
Wind direction Northwest (310°)
Wind speed 9 mph
Visibility 0 mi.
Present weather SM
Sky condition
Ceiling 500 ft. broken clouds
Cloud layer broken clouds 500 ft.
Cloud layer broken clouds 900 ft.
Cloud layer overcast 1,300 ft.
Temperature 28°F
Dewpoint 27°F
Altimeter 29.43 in.Hg
Derived measurements
Relative humidity 93%
Wind chill 20°F
Density altitude -1438 ft.
Remarks
Fully automated report.
METAR CYUA 270500Z AUTO 31008KT ////SM BKN005 BKN009 OVC013 M02/M03 A2943

Settings

Location code

InnerDrive.Weather 4.0.6770.0 Release CLR 4.0.30319.42000
Copyright ©2018 Inner Drive Technology. All rights reserved. Portions Copyright ©1986-2018 David Braverman.

Find weather

Site navigation


Skip Navigation Links

Place info

Page info

PayPal - The safer, easier way to pay online!

Return home.

Copyright ©2021 Inner Drive Technology. Purveyors of fine, hand-crafted computer software. Page printed 2021-10-27T06:02:05 UTC.